createdAt,value
2018-04-11T00:01:11.691Z,14.80
2018-04-11T00:03:39.259Z,15.13
2018-04-11T00:06:06.886Z,13.63
2018-04-11T00:08:34.438Z,14.47
2018-04-11T00:11:02.003Z,14.37
2018-04-11T00:13:29.793Z,14.67
2018-04-11T00:15:57.366Z,14.20
2018-04-11T00:18:24.920Z,13.80
2018-04-11T00:20:52.535Z,13.57
2018-04-11T00:23:20.095Z,13.87
2018-04-11T00:25:47.706Z,13.57
2018-04-11T00:28:15.427Z,13.53
2018-04-11T00:30:43.389Z,12.63
2018-04-11T00:33:10.978Z,11.90
2018-04-11T00:35:38.586Z,12.27
2018-04-11T00:38:06.480Z,12.63
2018-04-11T00:40:34.038Z,12.27
2018-04-11T00:43:01.619Z,11.37
2018-04-11T00:45:29.487Z,11.43
2018-04-11T00:47:57.042Z,12.10
2018-04-11T00:50:25.139Z,12.00
2018-04-11T00:53:04.736Z,13.07
2018-04-11T00:55:32.845Z,11.53
2018-04-11T00:58:01.056Z,10.83
2018-04-11T01:00:28.974Z,11.07
2018-04-11T01:02:56.545Z,11.37
2018-04-11T01:05:24.476Z,11.20
2018-04-11T01:07:52.238Z,11.97
2018-04-11T01:10:19.794Z,12.23
2018-04-11T01:12:47.354Z,10.97
2018-04-11T01:15:14.960Z,10.63
2018-04-11T01:17:42.557Z,11.83
2018-04-11T01:20:10.966Z,11.37
2018-04-11T01:22:39.126Z,11.63
2018-04-11T01:25:07.503Z,12.20
2018-04-11T01:27:35.059Z,12.30
2018-04-11T01:30:03.310Z,13.70
2018-04-11T01:32:30.911Z,14.13
2018-04-11T01:34:58.483Z,14.70
2018-04-11T01:37:26.876Z,14.43
2018-04-11T01:39:54.430Z,13.97
2018-04-11T01:42:22.027Z,14.67
2018-04-11T01:44:50.103Z,14.90
2018-04-11T01:47:18.043Z,13.47
2018-04-11T01:49:45.599Z,13.07
2018-04-11T01:52:13.300Z,13.20
2018-04-11T01:54:41.542Z,14.07
2018-04-11T01:57:09.633Z,14.20
2018-04-11T01:59:37.204Z,13.00
2018-04-11T02:02:04.940Z,12.37
2018-04-11T02:04:33.008Z,13.37
2018-04-11T02:07:00.724Z,12.87
2018-04-11T02:09:28.606Z,14.07
2018-04-11T02:11:56.166Z,12.67
2018-04-11T02:14:23.874Z,12.57
2018-04-11T02:16:52.080Z,13.03
2018-04-11T02:19:19.659Z,13.77
2018-04-11T02:21:47.215Z,13.23
2018-04-11T02:24:15.063Z,14.13
2018-04-11T02:26:42.626Z,12.77
2018-04-11T02:29:10.210Z,12.33
2018-04-11T02:31:37.808Z,12.13
2018-04-11T02:34:05.970Z,11.53
2018-04-11T02:36:33.981Z,11.83
2018-04-11T02:39:01.599Z,12.93
2018-04-11T02:41:29.159Z,13.20
2018-04-11T02:43:56.755Z,12.77
2018-04-11T02:46:24.310Z,13.60
2018-04-11T02:48:52.773Z,13.27
2018-04-11T02:51:20.327Z,13.23
2018-04-11T02:53:47.939Z,12.20
2018-04-11T02:56:16.061Z,12.73
2018-04-11T02:58:43.621Z,12.03
2018-04-11T03:01:11.279Z,12.40
2018-04-11T03:03:39.163Z,11.53
2018-04-11T03:06:06.770Z,12.20
2018-04-11T03:08:34.915Z,11.20
2018-04-11T03:11:02.482Z,12.10
2018-04-11T03:13:30.055Z,11.13
2018-04-11T03:15:57.963Z,11.60
2018-04-11T03:18:25.526Z,11.80
2018-04-11T03:20:53.394Z,11.70
2018-04-11T03:23:20.947Z,11.70
2018-04-11T03:25:48.863Z,11.70
2018-04-11T03:28:16.714Z,11.50
2018-04-11T03:30:44.323Z,10.93
2018-04-11T03:33:11.939Z,10.77
2018-04-11T03:35:39.546Z,10.73
2018-04-11T03:38:07.174Z,10.80
2018-04-11T03:40:34.744Z,11.67
2018-04-11T03:43:03.155Z,9.80
2018-04-11T03:45:30.775Z,10.80
2018-04-11T03:47:58.768Z,9.77
2018-04-11T03:50:26.657Z,9.77
2018-04-11T03:52:54.278Z,10.37
2018-04-11T03:55:21.831Z,11.40
2018-04-11T03:57:49.803Z,10.47
2018-04-11T04:00:17.411Z,10.33
2018-04-11T04:02:45.485Z,10.73
2018-04-11T04:05:13.685Z,11.03
2018-04-11T04:07:41.236Z,10.67
2018-04-11T04:10:09.282Z,11.57
2018-04-11T04:12:36.858Z,12.43
2018-04-11T04:18:26.143Z,11.97
2018-04-11T04:20:53.762Z,10.80
2018-04-11T04:23:21.310Z,11.03
2018-04-11T04:25:48.881Z,11.43
2018-04-11T04:28:16.811Z,12.23
2018-04-11T04:30:44.578Z,10.03
2018-04-11T04:33:12.149Z,10.30
2018-04-11T04:35:40.248Z,11.17
2018-04-11T04:38:08.339Z,10.87
2018-04-11T04:40:36.006Z,12.10
2018-04-11T04:43:03.593Z,11.00
2018-04-11T04:45:31.183Z,12.57
2018-04-11T04:47:58.725Z,12.50
2018-04-11T04:50:26.322Z,12.57
2018-04-11T04:52:54.164Z,12.77
2018-04-11T04:55:21.720Z,11.13
2018-04-11T04:57:49.290Z,12.98
2018-04-11T05:00:16.974Z,11.00
2018-04-11T05:02:45.001Z,12.93
2018-04-11T05:05:13.277Z,12.40
2018-04-11T05:07:40.876Z,11.70
2018-04-11T05:10:08.808Z,14.73
2018-04-11T05:12:36.415Z,13.30
2018-04-11T05:15:03.992Z,11.77
2018-04-11T05:17:31.680Z,12.63
2018-04-11T05:19:59.708Z,13.43
2018-04-11T05:22:27.258Z,11.70
2018-04-11T05:24:54.926Z,14.27
2018-04-11T05:27:22.805Z,11.47
2018-04-11T05:29:50.622Z,12.23
2018-04-11T05:32:18.270Z,12.87
2018-04-11T05:34:46.383Z,14.05
2018-04-11T05:37:14.740Z,13.13
2018-04-11T05:39:42.350Z,12.60
2018-04-11T05:42:09.961Z,13.43
2018-04-11T05:44:39.678Z,12.23
2018-04-11T05:47:07.225Z,12.93
2018-04-11T05:49:35.044Z,12.70
2018-04-11T05:52:03.263Z,13.75
2018-04-11T05:54:30.842Z,12.60
2018-04-11T05:56:58.666Z,11.60
2018-04-11T05:59:27.307Z,12.90
2018-04-11T06:01:54.937Z,12.00
2018-04-11T06:04:22.680Z,13.23
2018-04-11T06:06:50.459Z,11.80
2018-04-11T06:09:18.225Z,13.73
2018-04-11T06:11:45.872Z,13.57
2018-04-11T06:14:13.801Z,13.43
2018-04-11T06:16:41.818Z,12.33
2018-04-11T06:19:09.374Z,12.53
2018-04-11T06:21:37.032Z,12.10
2018-04-11T06:24:04.592Z,12.30
2018-04-11T06:26:32.138Z,11.30
2018-04-11T06:28:59.848Z,12.63
2018-04-11T06:31:27.394Z,11.67
2018-04-11T06:33:55.033Z,12.20
2018-04-11T06:36:22.590Z,12.87
2018-04-11T06:38:50.660Z,12.80
2018-04-11T06:41:18.258Z,13.50
2018-04-11T06:43:46.116Z,13.10
2018-04-11T06:46:14.272Z,11.57
2018-04-11T06:48:42.334Z,11.60
2018-04-11T06:51:09.950Z,12.55
2018-04-11T06:53:37.522Z,12.00
2018-04-11T06:56:05.595Z,11.33
2018-04-11T06:58:33.418Z,12.83
2018-04-11T07:01:01.066Z,11.97
2018-04-11T07:03:28.619Z,11.83
2018-04-11T07:05:56.239Z,12.53
2018-04-11T07:08:23.894Z,12.60
2018-04-11T07:10:51.591Z,12.53
2018-04-11T07:13:19.135Z,12.53
2018-04-11T07:15:46.941Z,12.90
2018-04-11T07:18:14.763Z,11.43
2018-04-11T07:20:42.770Z,14.45
2018-04-11T07:23:10.352Z,14.30
2018-04-11T07:25:38.265Z,14.00
2018-04-11T07:28:06.064Z,14.80
2018-04-11T07:30:34.017Z,14.73
2018-04-11T07:33:01.638Z,13.20
2018-04-11T07:35:29.361Z,15.13
2018-04-11T07:37:57.065Z,14.83
2018-04-11T07:40:24.950Z,14.20
2018-04-11T07:42:52.512Z,15.13
2018-04-11T07:45:20.066Z,13.03
2018-04-11T07:47:47.871Z,13.97
2018-04-11T07:50:15.723Z,14.17
2018-04-11T07:52:43.328Z,15.20
2018-04-11T07:55:10.924Z,13.50
2018-04-11T07:57:39.548Z,12.87
2018-04-11T08:00:07.532Z,14.60
2018-04-11T08:02:35.647Z,12.77
2018-04-11T08:05:03.341Z,13.20
2018-04-11T08:07:31.094Z,15.35
2018-04-11T08:09:58.701Z,13.27
2018-04-11T08:12:26.337Z,14.18
2018-04-11T08:14:53.907Z,13.13
2018-04-11T08:17:21.746Z,13.97
2018-04-11T08:19:49.447Z,12.43
2018-04-11T08:22:17.010Z,13.17
2018-04-11T08:24:44.744Z,14.30
2018-04-11T08:27:12.312Z,13.93
2018-04-11T08:29:41.101Z,14.77
2018-04-11T08:32:09.038Z,13.70
2018-04-11T08:34:36.653Z,24.60
2018-04-11T08:37:04.286Z,16.33
2018-04-11T08:39:31.839Z,16.10
2018-04-11T08:41:59.802Z,15.47
2018-04-11T08:44:27.694Z,15.97
2018-04-11T08:46:55.445Z,17.23
2018-04-11T08:49:23.233Z,14.57
2018-04-11T08:51:50.974Z,15.00
2018-04-11T08:54:18.806Z,15.90
2018-04-11T08:56:47.472Z,16.50
2018-04-11T08:59:15.955Z,16.00
2018-04-11T09:01:43.544Z,15.67
2018-04-11T09:04:11.097Z,15.37
2018-04-11T09:06:39.363Z,15.53
2018-04-11T09:09:06.926Z,16.30
2018-04-11T09:11:34.487Z,15.87
2018-04-11T09:14:02.089Z,14.87
2018-04-11T09:16:30.025Z,14.90
2018-04-11T09:18:57.668Z,14.37
2018-04-11T09:21:25.684Z,13.00
2018-04-11T09:23:53.227Z,14.83
2018-04-11T09:26:21.222Z,15.23
2018-04-11T09:28:48.860Z,14.83
2018-04-11T09:31:16.406Z,14.87
2018-04-11T09:33:43.958Z,16.27
2018-04-11T09:36:11.645Z,16.00
2018-04-11T09:38:39.236Z,16.77
2018-04-11T09:41:06.958Z,14.60
2018-04-11T09:43:35.563Z,14.60
2018-04-11T09:46:03.122Z,13.70
2018-04-11T09:48:30.730Z,13.90
2018-04-11T09:50:58.855Z,13.98
2018-04-11T09:53:26.788Z,13.80
2018-04-11T09:55:54.356Z,13.40
2018-04-11T09:58:22.109Z,13.60
2018-04-11T10:00:53.537Z,14.27
2018-04-11T10:03:23.236Z,12.97
2018-04-11T10:05:50.872Z,13.53
2018-04-11T10:08:18.430Z,13.17
2018-04-11T10:10:46.204Z,14.00
2018-04-11T10:13:13.822Z,13.80
2018-04-11T10:15:41.374Z,13.60
2018-04-11T10:18:09.496Z,14.82
2018-04-11T10:20:37.256Z,13.70
2018-04-11T10:23:04.886Z,13.03
2018-04-11T10:25:32.439Z,13.83
2018-04-11T10:28:00.038Z,12.93
2018-04-11T10:30:27.751Z,12.60
2018-04-11T10:32:55.365Z,12.90
2018-04-11T10:35:23.184Z,13.30
2018-04-11T10:37:52.218Z,12.10
2018-04-11T10:40:19.770Z,13.07
2018-04-11T10:42:47.633Z,12.30
2018-04-11T10:45:15.819Z,13.62
2018-04-11T10:47:43.373Z,13.10
2018-04-11T10:50:10.974Z,11.87
2018-04-11T10:52:38.945Z,11.20
2018-04-11T10:55:06.602Z,12.17
2018-04-11T10:57:34.242Z,11.87
2018-04-11T11:00:02.825Z,13.00
2018-04-11T11:02:30.509Z,12.03
2018-04-11T11:04:58.061Z,12.10
2018-04-11T11:07:25.630Z,12.27
2018-04-11T11:09:53.277Z,11.30
2018-04-11T11:12:20.942Z,11.60
2018-04-11T11:14:48.494Z,11.88
2018-04-11T11:17:16.120Z,12.13
2018-04-11T11:19:55.923Z,12.02
2018-04-11T11:22:23.637Z,11.95
2018-04-11T11:24:51.190Z,11.57
2018-04-11T11:27:19.025Z,11.87
2018-04-11T11:29:47.451Z,12.20
2018-04-11T11:32:15.070Z,11.17
2018-04-11T11:34:42.652Z,12.33
2018-04-11T11:37:10.238Z,13.82
2018-04-11T11:39:37.941Z,11.00
2018-04-11T11:42:05.516Z,11.98
2018-04-11T11:44:33.193Z,12.17
2018-04-11T11:47:00.807Z,11.80
2018-04-11T11:49:28.407Z,11.37
2018-04-11T11:51:55.963Z,11.63
2018-04-11T11:54:23.621Z,12.00
2018-04-11T11:56:51.230Z,11.13
2018-04-11T11:59:18.790Z,11.97
2018-04-11T12:01:46.414Z,11.73
2018-04-11T12:04:14.037Z,10.80
2018-04-11T12:06:41.586Z,11.40
2018-04-11T12:09:09.288Z,11.77
2018-04-11T12:11:36.894Z,10.20
2018-04-11T12:14:04.466Z,10.60
2018-04-11T12:16:32.076Z,10.50
2018-04-11T12:18:59.687Z,11.73
2018-04-11T12:21:27.334Z,11.57
2018-04-11T12:23:54.953Z,10.83
2018-04-11T12:26:22.587Z,13.67
2018-04-11T12:28:50.219Z,17.87
2018-04-11T12:31:17.982Z,15.00
2018-04-11T12:33:45.543Z,14.43
2018-04-11T12:36:13.206Z,13.85
2018-04-11T12:38:41.018Z,11.43
2018-04-11T12:41:08.575Z,13.17
2018-04-11T12:43:36.172Z,12.60
2018-04-11T12:46:04.618Z,12.80
2018-04-11T12:48:32.229Z,11.70
2018-04-11T12:50:59.843Z,12.77
2018-04-11T12:53:27.508Z,12.00
2018-04-11T12:55:55.114Z,11.60
2018-04-11T12:58:22.702Z,11.77
2018-04-11T13:00:50.319Z,13.60
2018-04-11T13:03:17.974Z,11.33
2018-04-11T13:05:45.627Z,12.40
2018-04-11T13:08:13.212Z,11.23
2018-04-11T13:10:40.818Z,12.25
2018-04-11T13:13:08.440Z,11.27
2018-04-11T13:15:36.018Z,12.00
2018-04-11T13:18:03.635Z,11.23
2018-04-11T13:20:31.506Z,11.47
2018-04-11T13:22:59.127Z,11.37
2018-04-11T13:25:26.756Z,11.23
2018-04-11T13:27:54.380Z,11.47
2018-04-11T13:30:21.945Z,11.23
2018-04-11T13:32:49.958Z,11.53
2018-04-11T13:35:17.714Z,11.73
2018-04-11T13:37:46.239Z,11.70
2018-04-11T13:40:14.174Z,10.57
2018-04-11T13:42:41.744Z,10.90
2018-04-11T13:45:09.338Z,11.97
2018-04-11T13:47:36.983Z,11.17
2018-04-11T13:50:04.597Z,10.97
2018-04-11T13:52:33.245Z,11.83
2018-04-11T13:55:00.787Z,11.63
2018-04-11T13:57:28.618Z,12.07
2018-04-11T13:59:56.162Z,10.37
2018-04-11T14:02:23.758Z,9.40
2018-04-11T14:04:51.667Z,10.40
2018-04-11T14:07:20.491Z,10.37
2018-04-11T14:09:48.102Z,10.90
2018-04-11T14:12:16.450Z,10.70
2018-04-11T14:14:44.581Z,10.13
2018-04-11T14:17:12.459Z,10.97
2018-04-11T14:19:40.004Z,12.00
2018-04-11T14:22:08.365Z,11.57
2018-04-11T14:24:35.930Z,10.60
2018-04-11T14:27:04.770Z,10.83
2018-04-11T14:29:32.338Z,11.48
2018-04-11T14:31:59.885Z,11.70
2018-04-11T14:34:27.731Z,9.83
2018-04-11T14:36:55.675Z,10.90
2018-04-11T14:39:23.270Z,11.00
2018-04-11T14:41:50.865Z,11.67
2018-04-11T14:44:18.430Z,10.60
2018-04-11T14:46:46.058Z,11.73
2018-04-11T14:49:14.495Z,9.07
2018-04-11T14:51:42.066Z,8.23
2018-04-11T14:54:09.711Z,9.53
2018-04-11T14:56:37.298Z,11.73
2018-04-11T14:59:05.118Z,8.87
2018-04-11T15:01:32.936Z,9.97
2018-04-11T15:04:00.526Z,9.77
2018-04-11T15:06:28.066Z,9.60
2018-04-11T15:08:55.607Z,9.20
2018-04-11T15:11:23.297Z,8.37
2018-04-11T15:13:50.846Z,9.93
2018-04-11T15:16:19.630Z,8.87
2018-04-11T15:18:47.389Z,8.97
2018-04-11T15:21:15.537Z,8.77
2018-04-11T15:23:44.597Z,9.07
2018-04-11T15:26:12.186Z,8.70
2018-04-11T15:28:40.135Z,8.80
2018-04-11T15:31:07.740Z,8.07
2018-04-11T15:33:35.305Z,8.00
2018-04-11T15:36:03.857Z,9.07
2018-04-11T15:38:32.209Z,9.33
2018-04-11T15:41:00.041Z,8.97
2018-04-11T15:43:27.674Z,9.20
2018-04-11T15:45:55.244Z,9.30
2018-04-11T15:48:23.188Z,9.80
2018-04-11T15:50:50.789Z,9.67
2018-04-11T15:53:18.342Z,9.30
2018-04-11T15:55:46.119Z,10.03
2018-04-11T15:58:13.871Z,9.20
2018-04-11T16:00:42.563Z,8.53
2018-04-11T16:03:10.934Z,9.33
2018-04-11T16:05:38.546Z,8.87
2018-04-11T16:08:06.151Z,10.20
2018-04-11T16:10:33.822Z,9.30
2018-04-11T16:13:02.498Z,8.63
2018-04-11T16:15:30.625Z,9.23
2018-04-11T16:17:58.767Z,8.00
2018-04-11T16:20:27.132Z,9.57
2018-04-11T16:22:54.823Z,8.80
2018-04-11T16:25:22.728Z,8.23
2018-04-11T16:27:50.642Z,7.97
2018-04-11T16:30:18.188Z,8.23
2018-04-11T16:32:48.251Z,7.60
2018-04-11T16:35:16.182Z,8.57
2018-04-11T16:37:44.169Z,7.43
2018-04-11T16:40:12.316Z,7.20
2018-04-11T16:42:39.905Z,8.00
2018-04-11T16:45:07.852Z,7.67
2018-04-11T16:47:35.474Z,7.90
2018-04-11T16:50:03.437Z,8.37
2018-04-11T16:52:31.330Z,7.60
2018-04-11T16:54:59.394Z,8.20
2018-04-11T16:57:27.667Z,10.13
2018-04-11T16:59:55.217Z,8.80
2018-04-11T17:02:22.767Z,8.63
2018-04-11T17:04:51.351Z,11.70
2018-04-11T17:07:19.287Z,15.27
2018-04-11T17:09:48.021Z,14.60
2018-04-11T17:12:15.997Z,17.30
2018-04-11T17:14:43.609Z,17.87
2018-04-11T17:17:11.175Z,16.73
2018-04-11T17:19:38.750Z,15.00
2018-04-11T17:22:18.193Z,17.00
2018-04-11T17:24:57.562Z,16.00
2018-04-11T17:27:37.037Z,15.77
2018-04-11T17:30:16.742Z,17.07
2018-04-11T17:32:44.541Z,19.00
2018-04-11T17:35:12.091Z,21.00
2018-04-11T17:37:39.691Z,19.73
2018-04-11T17:40:07.274Z,22.67
2018-04-11T17:42:35.280Z,26.20
2018-04-11T17:45:04.163Z,26.03
2018-04-11T17:47:33.126Z,38.15
2018-04-11T17:50:01.334Z,38.27
2018-04-11T17:52:29.405Z,39.87
2018-04-11T17:54:57.194Z,39.67
2018-04-11T17:57:24.788Z,43.63
2018-04-11T17:59:54.034Z,42.87
2018-04-11T18:02:22.797Z,48.63
2018-04-11T18:04:50.341Z,35.17
2018-04-11T18:07:18.161Z,26.30
2018-04-11T18:09:45.873Z,26.50
2018-04-11T18:12:13.611Z,30.00
2018-04-11T18:14:41.718Z,45.47
2018-04-11T18:17:09.311Z,42.10
2018-04-11T18:19:36.989Z,30.33
2018-04-11T18:22:05.343Z,29.53
2018-04-11T18:24:32.918Z,28.23
2018-04-11T18:27:01.080Z,29.52
2018-04-11T18:29:28.630Z,25.50
2018-04-11T18:31:57.062Z,27.97
2018-04-11T18:34:25.078Z,25.57
2018-04-11T18:36:53.244Z,23.80
2018-04-11T18:39:20.839Z,24.37
2018-04-11T18:41:49.019Z,26.62
2018-04-11T18:44:16.637Z,23.00
2018-04-11T18:46:44.582Z,22.03
2018-04-11T18:49:12.138Z,22.60
2018-04-11T18:51:39.694Z,20.77
2018-04-11T18:54:07.314Z,21.10
2018-04-11T18:56:34.862Z,19.17
2018-04-11T18:59:02.475Z,20.10
2018-04-11T19:01:30.302Z,19.87
2018-04-11T19:03:59.654Z,19.50
2018-04-11T19:06:28.037Z,19.77
2018-04-11T19:08:56.125Z,19.50
2018-04-11T19:11:23.671Z,19.63
2018-04-11T19:13:51.619Z,19.60
2018-04-11T19:16:19.162Z,18.77
2018-04-11T19:18:47.517Z,18.10
2018-04-11T19:21:15.505Z,18.90
2018-04-11T19:23:43.099Z,17.87
2018-04-11T19:26:11.186Z,17.80
2018-04-11T19:28:38.986Z,19.20
2018-04-11T19:31:06.586Z,17.40
2018-04-11T19:33:34.183Z,16.60
2018-04-11T19:36:01.802Z,18.83
2018-04-11T19:38:30.034Z,17.47
2018-04-11T19:40:57.982Z,18.90
2018-04-11T19:43:25.922Z,18.83
2018-04-11T19:45:53.514Z,18.97
2018-04-11T19:48:21.914Z,18.50
2018-04-11T19:50:49.775Z,19.10
2018-04-11T19:53:17.378Z,19.67
2018-04-11T19:55:44.953Z,18.20
2018-04-11T19:58:13.488Z,18.57
2018-04-11T20:00:41.034Z,20.00
2018-04-11T20:03:09.396Z,23.50
2018-04-11T20:05:37.463Z,19.20
2018-04-11T20:08:05.381Z,19.90
2018-04-11T20:10:32.930Z,21.43
2018-04-11T20:13:00.636Z,21.03
2018-04-11T20:15:28.262Z,20.93
2018-04-11T20:17:56.035Z,20.27
2018-04-11T20:20:23.695Z,20.80
2018-04-11T20:22:51.245Z,18.93
2018-04-11T20:25:19.402Z,21.00
2018-04-11T20:27:47.260Z,19.30
2018-04-11T20:30:14.834Z,18.87
2018-04-11T20:32:42.454Z,20.03
2018-04-11T20:35:11.994Z,18.70
2018-04-11T20:37:40.869Z,18.47
2018-04-11T20:40:08.414Z,19.43
2018-04-11T20:42:37.437Z,19.10
2018-04-11T20:45:05.053Z,22.60
2018-04-11T20:47:32.956Z,24.50
2018-04-11T20:50:01.344Z,24.13
2018-04-11T20:52:29.609Z,24.80
2018-04-11T20:54:57.747Z,27.30
2018-04-11T20:57:26.226Z,25.23
2018-04-11T20:59:55.035Z,26.40
2018-04-11T21:02:22.947Z,25.27
2018-04-11T21:04:50.820Z,25.57
2018-04-11T21:07:18.362Z,24.97
2018-04-11T21:09:46.598Z,23.80
2018-04-11T21:12:14.137Z,23.30
2018-04-11T21:14:41.724Z,22.07
2018-04-11T21:17:09.793Z,21.27
2018-04-11T21:19:37.384Z,20.97
2018-04-11T21:22:04.926Z,21.77
2018-04-11T21:24:33.001Z,20.90
2018-04-11T21:27:00.984Z,20.03
2018-04-11T21:29:29.261Z,19.53
2018-04-11T21:31:57.428Z,20.00
2018-04-11T21:34:25.121Z,19.77
2018-04-11T21:36:53.167Z,20.03
2018-04-11T21:39:20.714Z,19.33
2018-04-11T21:41:48.579Z,19.97
2018-04-11T21:44:16.620Z,20.23
2018-04-11T21:46:44.841Z,20.23
2018-04-11T21:49:12.394Z,20.53
2018-04-11T21:51:39.978Z,20.23
2018-04-11T21:54:08.133Z,21.07
2018-04-11T21:56:36.073Z,18.97
2018-04-11T21:59:04.340Z,19.80
2018-04-11T22:01:31.898Z,19.33
2018-04-11T22:03:59.805Z,19.30
2018-04-11T22:06:27.636Z,22.60
2018-04-11T22:08:55.181Z,23.23
2018-04-11T22:11:22.800Z,21.50
2018-04-11T22:13:50.555Z,22.47
2018-04-11T22:16:18.118Z,23.47
2018-04-11T22:18:45.726Z,22.07
2018-04-11T22:21:13.287Z,23.37
2018-04-11T22:23:40.853Z,26.03
2018-04-11T22:26:08.446Z,23.80
2018-04-11T22:28:36.042Z,21.40
2018-04-11T22:31:03.588Z,22.57
2018-04-11T22:33:31.510Z,25.60
2018-04-11T22:35:59.109Z,25.50
2018-04-11T22:38:27.092Z,26.67
2018-04-11T22:40:54.639Z,24.67
2018-04-11T22:43:22.242Z,22.63
2018-04-11T22:45:50.064Z,24.07
2018-04-11T22:48:17.651Z,23.47
2018-04-11T22:50:45.484Z,22.77
2018-04-11T22:53:13.025Z,22.67
2018-04-11T22:55:41.029Z,24.73
2018-04-11T22:58:08.968Z,22.77
2018-04-11T23:00:36.510Z,21.93
2018-04-11T23:03:04.109Z,22.80
2018-04-11T23:05:31.659Z,24.30
2018-04-11T23:07:59.286Z,24.87
2018-04-11T23:10:27.073Z,24.43
2018-04-11T23:12:54.637Z,22.03
2018-04-11T23:15:22.259Z,20.27
2018-04-11T23:17:49.886Z,20.73
2018-04-11T23:20:17.454Z,21.70
2018-04-11T23:22:45.250Z,22.07
2018-04-11T23:25:13.806Z,21.53
2018-04-11T23:27:41.353Z,20.53
2018-04-11T23:30:08.938Z,21.23
2018-04-11T23:32:36.490Z,19.13
2018-04-11T23:35:04.108Z,20.20
2018-04-11T23:37:32.087Z,19.17
2018-04-11T23:40:00.061Z,18.10
2018-04-11T23:42:28.027Z,18.03
2018-04-11T23:44:55.576Z,19.07
2018-04-11T23:47:23.165Z,19.77
2018-04-11T23:49:50.750Z,19.30
2018-04-11T23:52:18.289Z,17.83
2018-04-11T23:54:45.878Z,16.77
2018-04-11T23:57:13.481Z,17.47
2018-04-11T23:59:41.661Z,17.60
